Time;durP1;ratioP1;P1;durP2;ratioP2;P2;SDS_P1;SDS_P2;PMS_P1;PMS_P2;Temp;Humidity;BMP_temperature;BMP_pressure;BME280_temperature;BME280_humidity;BME280_pressure;Samples;Min_cycle;Max_cycle;Signal;HPM_P1;HPM_P2
2023/05/21 06:57:15;;;;;;;9.60;4.73;;;;;;;20.33;51.21;96741.34;5009643;28;20248;-72
2023/05/21 06:59:43;;;;;;;8.63;4.87;;;;;;;20.38;49.75;96742.59;5024203;28;20230;-73
2023/05/21 07:02:10;;;;;;;6.10;3.90;;;;;;;20.07;45.10;96731.31;5026153;28;20264;-70
2023/05/21 07:04:37;;;;;;;7.67;4.37;;;;;;;20.18;46.34;96719.84;5007969;28;20673;-68
2023/05/21 07:07:04;;;;;;;8.97;4.07;;;;;;;20.23;45.81;96759.75;5011005;28;20284;-67
2023/05/21 07:09:32;;;;;;;5.37;2.97;;;;;;;20.15;41.27;96749.84;5008452;28;20210;-67
2023/05/21 07:12:00;;;;;;;4.83;3.53;;;;;;;20.09;41.82;96749.59;5025576;28;20225;-67
2023/05/21 07:14:27;;;;;;;5.53;3.67;;;;;;;20.13;44.09;96750.97;5009268;28;20210;-68
2023/05/21 07:16:55;;;;;;;8.23;4.33;;;;;;;20.19;44.13;96753.06;5024577;28;20198;-69
2023/05/21 07:19:22;;;;;;;7.07;3.97;;;;;;;20.33;46.09;96749.22;5026237;28;20301;-70
2023/05/21 07:21:49;;;;;;;10.90;4.90;;;;;;;20.20;49.05;96755.59;5008935;28;20697;-70
2023/05/21 07:24:17;;;;;;;7.57;4.30;;;;;;;20.32;49.03;96756.28;5010409;28;20233;-67
2023/05/21 07:26:44;;;;;;;10.00;4.63;;;;;;;20.48;49.12;96756.59;5024327;28;20209;-69
2023/05/21 07:29:12;;;;;;;7.70;4.60;;;;;;;20.69;48.21;96759.91;5008848;28;20289;-72
2023/05/21 07:31:39;;;;;;;8.80;4.23;;;;;;;20.71;47.91;96757.16;5008599;28;20587;-69
2023/05/21 07:34:06;;;;;;;17.83;5.57;;;;;;;20.75;48.14;96754.09;5007905;28;20256;-72
2023/05/21 07:36:34;;;;;;;8.83;4.10;;;;;;;20.63;46.77;96735.97;5009197;28;20198;-68
2023/05/21 07:39:03;;;;;;;9.43;4.50;;;;;;;20.73;46.04;96753.41;5023578;28;20218;-67
2023/05/21 07:41:31;;;;;;;10.23;4.67;;;;;;;20.89;46.32;96756.31;5025755;28;20761;-68
2023/05/21 07:44:01;;;;;;;9.57;3.63;;;;;;;21.02;45.35;96754.22;5007806;28;20202;-68
2023/05/21 07:46:31;;;;;;;12.50;4.73;;;;;;;21.06;44.82;96750.34;5008617;28;20219;-69
2023/05/21 07:48:58;;;;;;;5.97;3.93;;;;;;;20.93;43.51;96749.81;5008295;28;20206;-70
2023/05/21 07:51:25;;;;;;;5.30;4.20;;;;;;;20.88;44.01;96757.28;5007816;28;20195;-70
2023/05/21 07:53:53;;;;;;;7.67;4.40;;;;;;;20.79;46.98;96752.84;5024899;28;20235;-73
2023/05/21 07:56:29;;;;;;;8.37;4.93;;;;;;;20.49;51.05;96749.53;5023633;28;20309;-69
2023/05/21 07:59:00;;;;;;;6.53;4.53;;;;;;;19.81;52.39;96758.22;5008625;28;20205;-69
2023/05/21 08:01:29;;;;;;;12.70;4.63;;;;;;;19.66;51.42;96760.38;5023850;28;20205;-71
2023/05/21 08:04:04;;;;;;;9.00;5.30;;;;;;;19.78;52.35;96761.97;5024441;28;20224;-71
2023/05/21 08:06:33;;;;;;;9.50;4.60;;;;;;;20.08;50.24;96750.53;5008932;28;20206;-68
2023/05/21 08:09:03;;;;;;;6.47;3.67;;;;;;;20.01;46.32;96758.13;5023241;28;20260;-74
2023/05/21 08:11:31;;;;;;;7.97;4.10;;;;;;;20.12;45.01;96767.72;5024747;28;20707;-71
2023/05/21 08:13:59;;;;;;;5.57;3.37;;;;;;;20.20;44.39;96760.00;5006644;28;20206;-68
2023/05/21 08:16:26;;;;;;;8.23;3.83;;;;;;;20.15;44.91;96759.56;5008168;28;20199;-74
2023/05/21 08:18:53;;;;;;;6.60;3.70;;;;;;;20.27;43.99;96761.13;5006758;28;20210;-78
2023/05/21 08:21:21;;;;;;;6.43;3.43;;;;;;;20.19;44.51;96753.06;5007742;28;20222;-76
2023/05/21 08:23:51;;;;;;;5.20;3.53;;;;;;;20.33;43.08;96771.13;4991823;28;20746;-73
2023/05/21 08:26:19;;;;;;;7.30;3.77;;;;;;;20.24;44.08;96751.72;5023073;28;20249;-74
2023/05/21 08:28:46;;;;;;;7.33;4.10;;;;;;;20.46;44.65;96736.66;5024335;28;20260;-78
2023/05/21 08:31:13;;;;;;;6.20;3.77;;;;;;;20.55;44.55;96752.44;5006439;28;20264;-67
2023/05/21 08:33:50;;;;;;;7.93;4.40;;;;;;;20.46;44.13;96744.53;5009356;28;20223;-72
2023/05/21 08:36:20;;;;;;;10.27;4.63;;;;;;;20.64;44.37;96745.50;5007048;28;20679;-74
2023/05/21 08:38:52;;;;;;;4.97;3.10;;;;;;;20.53;43.27;96743.84;5023140;28;20662;-71
2023/05/21 08:41:30;;;;;;;5.33;4.17;;;;;;;20.91;43.58;96756.16;5007804;28;20729;-68
2023/05/21 08:44:00;;;;;;;8.03;3.43;;;;;;;21.05;43.90;96747.84;5022420;28;20210;-68
2023/05/21 08:46:32;;;;;;;8.10;3.47;;;;;;;21.23;43.71;96750.59;5024200;28;20222;-69
2023/05/21 08:49:01;;;;;;;6.43;3.30;;;;;;;21.35;42.37;96755.53;5006251;28;20242;-68
2023/05/21 08:51:30;;;;;;;5.20;3.77;;;;;;;21.72;42.28;96752.94;5007437;28;20198;-72
2023/05/21 08:54:00;;;;;;;6.93;3.40;;;;;;;21.76;41.95;96738.50;5006962;28;20210;-67
2023/05/21 08:56:30;;;;;;;5.77;3.33;;;;;;;21.94;42.46;96744.66;5022784;28;20250;-68
2023/05/21 08:58:58;;;;;;;4.30;3.30;;;;;;;22.15;41.22;96737.34;5007500;28;20204;-68
2023/05/21 09:01:30;;;;;;;7.67;3.30;;;;;;;22.36;40.84;96737.88;5005826;28;20227;-73
2023/05/21 09:04:17;;;;;;;5.67;3.30;;;;;;;22.22;41.01;96741.03;5024043;28;20196;-68
2023/05/21 09:06:50;;;;;;;5.87;3.37;;;;;;;22.08;40.45;96753.88;5005800;28;20240;-66
2023/05/21 09:09:33;;;;;;;7.83;3.20;;;;;;;21.84;41.41;96751.81;5006165;28;20211;-70
2023/05/21 09:12:01;;;;;;;6.70;3.33;;;;;;;22.01;42.04;96753.63;4991184;28;20283;-67
2023/05/21 09:14:30;;;;;;;5.97;4.47;;;;;;;21.92;41.61;96746.63;5005482;28;20262;-67
2023/05/21 09:17:02;;;;;;;6.47;4.03;;;;;;;22.06;41.66;96761.94;5007101;28;20610;-69
2023/05/21 09:19:30;;;;;;;5.00;3.30;;;;;;;22.39;41.78;96753.41;4989832;28;20219;-75
2023/05/21 09:22:03;;;;;;;7.77;4.07;;;;;;;22.48;42.31;96760.41;5023016;28;20713;-68
2023/05/21 09:24:32;;;;;;;7.33;3.93;;;;;;;22.56;41.99;96755.25;5023566;28;20701;-70
2023/05/21 09:27:05;;;;;;;4.63;3.57;;;;;;;22.24;43.69;96754.88;4989085;28;20224;-69
2023/05/21 09:29:34;;;;;;;5.50;4.00;;;;;;;22.29;44.02;96768.47;5023258;28;20197;-67
2023/05/21 09:32:06;;;;;;;8.40;4.20;;;;;;;22.04;43.44;96756.00;5005266;28;20284;-72
2023/05/21 09:34:35;;;;;;;5.53;2.97;;;;;;;21.70;43.56;96763.59;4991118;28;20208;-68
2023/05/21 09:37:03;;;;;;;7.17;3.67;;;;;;;21.95;43.32;96758.69;5005936;28;20206;-68
2023/05/21 09:39:34;;;;;;;5.40;3.80;;;;;;;21.83;43.46;96753.59;5006059;28;20258;-69
2023/05/21 09:42:03;;;;;;;8.80;3.13;;;;;;;21.91;42.98;96773.16;5023292;28;20266;-71
2023/05/21 09:44:31;;;;;;;3.47;3.17;;;;;;;21.83;42.45;96776.50;5005056;28;20304;-68
2023/05/21 09:46:58;;;;;;;6.67;3.87;;;;;;;22.00;42.51;96762.53;5006818;28;20254;-75
2023/05/21 09:49:30;;;;;;;6.10;3.83;;;;;;;22.12;42.50;96757.88;5021373;28;20444;-69
2023/05/21 09:51:58;;;;;;;6.10;3.10;;;;;;;21.81;42.36;96704.59;5023057;28;20610;-69
2023/05/21 09:54:31;;;;;;;5.40;4.07;;;;;;;21.99;43.09;96760.06;5007510;28;20679;-69
2023/05/21 09:57:01;;;;;;;6.80;3.70;;;;;;;21.88;43.65;96753.16;5007148;28;20322;-68
2023/05/21 09:59:37;;;;;;;7.80;3.80;;;;;;;22.20;43.64;96766.72;5008111;28;20194;-68
2023/05/21 10:02:17;;;;;;;6.23;4.00;;;;;;;22.13;43.17;96763.03;5004990;28;20303;-74
2023/05/21 10:04:48;;;;;;;5.60;3.70;;;;;;;22.33;43.29;96758.44;5008238;28;20203;-69
2023/05/21 10:07:30;;;;;;;7.80;3.67;;;;;;;22.21;43.03;96754.38;5005429;28;20706;-69
2023/05/21 10:09:59;;;;;;;4.37;2.83;;;;;;;22.31;42.78;96744.56;5006737;28;20647;-70
2023/05/21 10:12:29;;;;;;;7.17;3.10;;;;;;;22.09;43.81;96748.44;5007774;28;20289;-76
2023/05/21 10:15:00;;;;;;;6.03;4.20;;;;;;;22.30;44.12;96753.47;5004680;28;20295;-72
2023/05/21 10:17:34;;;;;;;6.00;3.73;;;;;;;22.26;44.58;96752.94;5022082;28;20207;-74
2023/05/21 10:20:03;;;;;;;6.80;3.90;;;;;;;22.16;43.96;96768.00;5006010;28;20217;-78
2023/05/21 10:22:32;;;;;;;4.93;3.40;;;;;;;22.08;44.07;96744.16;5007540;28;20210;-77
2023/05/21 10:25:02;;;;;;;5.97;4.43;;;;;;;22.15;45.10;96774.28;5007026;28;20200;-69
2023/05/21 10:27:32;;;;;;;7.67;4.07;;;;;;;22.02;45.40;96757.94;5021418;28;20196;-76
2023/05/21 10:30:01;;;;;;;8.93;3.67;;;;;;;22.02;44.95;96752.66;5007910;28;20189;-72
2023/05/21 10:32:32;;;;;;;4.93;3.70;;;;;;;22.01;45.39;96751.00;5004646;28;20193;-78
2023/05/21 10:35:01;;;;;;;5.27;3.90;;;;;;;22.34;45.88;96741.66;5007351;28;20268;-67
2023/05/21 10:37:31;;;;;;;7.83;4.17;;;;;;;22.37;44.74;96752.72;5004659;28;20200;-68
2023/05/21 10:39:59;;;;;;;7.13;3.53;;;;;;;22.53;44.87;96760.81;5022151;28;20527;-72
2023/05/21 10:42:32;;;;;;;8.03;4.27;;;;;;;22.47;45.44;96755.28;5007305;28;20554;-76
2023/05/21 10:45:31;;;;;;;8.70;5.00;;;;;;;22.39;45.36;96763.97;5005995;28;20677;-67
2023/05/21 10:48:08;;;;;;;8.80;4.40;;;;;;;22.47;45.93;96748.22;5007396;28;20220;-68
2023/05/21 10:50:50;;;;;;;6.43;4.27;;;;;;;22.60;45.21;96761.06;4989013;28;20224;-72
2023/05/21 10:53:50;;;;;;;6.87;4.67;;;;;;;22.71;44.44;96762.66;5006710;28;20253;-69
2023/05/21 10:56:27;;;;;;;5.07;4.03;;;;;;;22.57;44.97;96767.44;5022390;28;20225;-73
2023/05/21 10:59:20;;;;;;;7.13;4.13;;;;;;;22.44;45.59;96780.16;5005704;28;20201;-71
2023/05/21 11:01:53;;;;;;;7.73;5.23;;;;;;;22.36;46.46;96755.53;5007070;28;20226;-71
2023/05/21 11:04:26;;;;;;;7.03;4.63;;;;;;;22.45;46.65;96750.16;5007377;28;20226;-70
2023/05/21 11:06:55;;;;;;;6.67;4.70;;;;;;;22.42;46.03;96750.47;5005645;28;20695;-68
2023/05/21 11:09:22;;;;;;;5.47;4.20;;;;;;;22.34;46.49;96755.66;5005983;28;20197;-68
2023/05/21 11:11:53;;;;;;;8.80;4.97;;;;;;;22.27;46.24;96762.53;5005502;28;20251;-69
2023/05/21 11:14:38;;;;;;;10.70;5.27;;;;;;;22.30;46.53;96754.28;5007235;28;20197;-71
2023/05/21 11:17:15;;;;;;;7.43;4.13;;;;;;;22.21;46.21;96765.75;5005488;28;20200;-68
2023/05/21 11:19:46;;;;;;;9.30;6.13;;;;;;;22.36;45.56;96772.16;5004364;28;20569;-75
2023/05/21 11:22:26;;;;;;;8.27;4.70;;;;;;;22.23;46.28;96752.41;5007574;28;20279;-69
2023/05/21 11:25:00;;;;;;;6.67;4.33;;;;;;;21.95;46.80;96705.94;5004267;28;20208;-72
2023/05/21 11:27:41;;;;;;;7.57;4.83;;;;;;;22.35;46.84;96751.22;5007107;28;20204;-77
2023/05/21 11:30:18;;;;;;;8.70;5.33;;;;;;;21.99;47.07;96752.94;5009446;28;20204;-79
2023/05/21 11:33:09;;;;;;;8.27;5.53;;;;;;;22.31;47.15;96752.50;5007887;28;20758;-75
2023/05/21 11:35:48;;;;;;;7.20;4.53;;;;;;;22.38;46.33;96746.47;5010836;28;20195;-68
2023/05/21 11:38:16;;;;;;;8.33;5.03;;;;;;;22.43;46.94;96752.13;5009333;28;20741;-76
2023/05/21 11:40:53;;;;;;;9.73;4.13;;;;;;;22.33;47.32;96748.72;5009020;28;20340;-67
2023/05/21 11:43:21;;;;;;;9.40;4.87;;;;;;;22.21;47.05;96760.47;5010710;28;20191;-71
2023/05/21 11:45:51;;;;;;;5.80;3.97;;;;;;;21.85;47.76;96738.47;5007627;28;20235;-69
2023/05/21 11:48:23;;;;;;;5.37;3.73;;;;;;;21.76;48.34;96751.66;5010776;28;20201;-69
2023/05/21 11:50:53;;;;;;;5.97;4.33;;;;;;;22.01;48.13;96756.28;5009420;28;20268;-69
2023/05/21 11:53:20;;;;;;;10.20;5.50;;;;;;;22.09;47.12;96742.38;5009422;28;20228;-69
2023/05/21 11:55:55;;;;;;;7.00;5.20;;;;;;;22.29;47.14;96749.19;5009439;28;20308;-80
2023/05/21 11:58:23;;;;;;;9.63;4.70;;;;;;;22.11;47.32;96754.44;5008139;28;20228;-69
2023/05/21 12:00:50;;;;;;;11.83;4.67;;;;;;;22.16;47.14;96752.16;5010360;28;20325;-73
2023/05/21 12:03:18;;;;;;;5.87;3.63;;;;;;;22.02;47.59;96755.31;5008396;28;20706;-71
2023/05/21 12:05:47;;;;;;;6.67;3.60;;;;;;;21.99;48.60;96747.69;5010236;28;20299;-75
2023/05/21 12:08:24;;;;;;;6.20;3.70;;;;;;;22.10;48.79;96752.75;5008443;28;20572;-75
2023/05/21 12:10:57;;;;;;;8.20;3.67;;;;;;;22.05;48.84;96744.44;5009900;28;20242;-79
2023/05/21 12:13:26;;;;;;;6.90;3.90;;;;;;;21.93;49.59;96745.63;5008366;28;20579;-73
2023/05/21 12:15:54;;;;;;;6.73;3.97;;;;;;;21.70;50.62;96762.81;5007287;28;20197;-74
2023/05/21 12:18:22;;;;;;;6.93;3.70;;;;;;;21.46;50.38;96762.44;5009827;28;20283;-70
2023/05/21 12:20:51;;;;;;;7.23;4.13;;;;;;;20.85;49.75;96752.31;5008262;28;20334;-74
2023/05/21 12:23:27;;;;;;;8.67;4.20;;;;;;;20.42;54.03;96765.03;5010148;28;20199;-69
2023/05/21 12:25:54;;;;;;;7.40;3.90;;;;;;;20.02;58.04;96759.81;5008639;28;20190;-68
2023/05/21 12:28:23;;;;;;;7.13;4.80;;;;;;;20.03;58.71;96763.28;5009386;28;20203;-67
2023/05/21 12:30:52;;;;;;;6.63;4.13;;;;;;;20.10;59.48;96767.03;5009086;28;20290;-68
2023/05/21 12:33:19;;;;;;;8.57;5.00;;;;;;;20.09;59.60;96768.81;5008199;28;20195;-67
2023/05/21 12:35:51;;;;;;;7.80;4.63;;;;;;;20.14;59.36;96756.09;5009485;28;20202;-72
2023/05/21 12:38:18;;;;;;;6.40;4.37;;;;;;;20.19;59.76;96768.84;5007998;28;20584;-67
2023/05/21 12:40:45;;;;;;;5.60;4.97;;;;;;;20.07;60.52;96783.09;5009594;28;20599;-71
2023/05/21 12:43:12;;;;;;;8.03;4.43;;;;;;;20.16;61.21;96785.72;5008580;28;20191;-73
2023/05/21 12:45:39;;;;;;;8.97;4.67;;;;;;;20.08;60.76;96780.31;5008981;28;20186;-68
2023/05/21 12:48:07;;;;;;;11.20;5.00;;;;;;;20.06;61.53;96773.50;5009267;28;20225;-67
2023/05/21 12:50:39;;;;;;;5.37;4.27;;;;;;;20.15;62.37;96775.34;5008133;28;20599;-67
2023/05/21 12:53:08;;;;;;;10.23;5.10;;;;;;;20.26;61.64;96777.88;5009667;28;20199;-68
2023/05/21 12:55:35;;;;;;;10.77;5.57;;;;;;;20.31;62.91;96762.53;5007909;28;20252;-70
2023/05/21 12:58:06;;;;;;;9.33;5.03;;;;;;;20.30;63.01;96765.31;5009369;28;20609;-67
2023/05/21 13:00:34;;;;;;;11.50;6.07;;;;;;;20.40;65.36;96764.34;5006597;28;20246;-73
2023/05/21 13:03:03;;;;;;;7.63;5.83;;;;;;;20.38;63.42;96750.47;5008943;28;20248;-70
2023/05/21 13:05:30;;;;;;;10.20;6.10;;;;;;;20.05;63.60;96742.94;5008604;28;20302;-68
2023/05/21 13:07:57;;;;;;;18.07;8.80;;;;;;;20.17;65.70;96747.94;5007710;28;20658;-69
2023/05/21 13:10:24;;;;;;;11.87;7.93;;;;;;;20.05;66.40;96753.47;5009415;28;20229;-73
2023/05/21 13:12:51;;;;;;;8.23;6.33;;;;;;;19.82;64.78;96747.59;5006293;28;20226;-67
2023/05/21 13:15:19;;;;;;;7.47;5.27;;;;;;;19.96;63.08;96744.59;5007748;28;20199;-72
2023/05/21 13:17:46;;;;;;;8.00;6.57;;;;;;;20.21;64.49;96716.97;5007283;28;20282;-69
2023/05/21 13:20:25;;;;;;;10.93;6.63;;;;;;;20.44;65.85;96728.91;5008576;28;20276;-71
2023/05/21 13:22:53;;;;;;;8.97;5.90;;;;;;;20.58;64.24;96725.03;5008674;28;20199;-71
2023/05/21 13:25:23;;;;;;;9.83;7.07;;;;;;;20.93;69.90;96728.75;5005757;28;20233;-67
2023/05/21 13:27:51;;;;;;;8.33;6.83;;;;;;;20.98;68.02;96723.03;5008806;28;20198;-68
2023/05/21 13:30:20;;;;;;;9.70;7.13;;;;;;;20.94;71.11;96737.44;5007041;28;20685;-68
2023/05/21 13:32:47;;;;;;;9.30;8.00;;;;;;;20.88;71.05;96727.47;5009207;28;20198;-72
2023/05/21 13:35:16;;;;;;;12.93;8.60;;;;;;;20.94;72.16;96725.13;5007380;28;20209;-71
2023/05/21 13:37:44;;;;;;;11.10;8.00;;;;;;;20.91;72.24;96719.31;5008204;28;20201;-72
2023/05/21 13:40:13;;;;;;;15.23;8.30;;;;;;;20.90;72.48;96707.09;5008751;28;20194;-70
2023/05/21 13:42:43;;;;;;;16.03;8.27;;;;;;;20.93;72.49;96712.94;5005507;28;20589;-76
2023/05/21 13:45:13;;;;;;;11.17;7.60;;;;;;;20.95;72.46;96705.72;5006979;28;20230;-69
2023/05/21 13:47:41;;;;;;;11.90;9.40;;;;;;;20.75;70.66;96690.91;5006629;28;20586;-68
2023/05/21 13:50:10;;;;;;;9.13;6.97;;;;;;;20.77;70.21;96691.59;5008311;28;20199;-74
2023/05/21 13:52:38;;;;;;;9.00;6.77;;;;;;;20.80;68.87;96672.06;4988753;28;20280;-78
2023/05/21 13:55:05;;;;;;;10.60;6.87;;;;;;;20.88;69.61;96696.72;5008163;28;20237;-72
2023/05/21 13:57:32;;;;;;;14.43;6.50;;;;;;;21.01;69.13;96685.88;5007983;28;20194;-74
2023/05/21 14:00:00;;;;;;;13.43;6.83;;;;;;;20.98;69.49;96688.78;5006771;28;20191;-75
2023/05/21 14:02:31;;;;;;;8.83;4.97;;;;;;;21.04;66.63;96678.56;5008057;28;20235;-78
2023/05/21 14:04:58;;;;;;;9.47;6.10;;;;;;;21.14;67.56;96678.53;5006506;28;20207;-78
2023/05/21 14:07:25;;;;;;;8.90;5.77;;;;;;;21.26;67.06;96687.09;5008035;28;20269;-77
2023/05/21 14:09:52;;;;;;;8.97;6.13;;;;;;;21.37;66.62;96687.72;5006778;28;20254;-78
2023/05/21 14:12:20;;;;;;;7.27;5.60;;;;;;;20.93;68.66;96688.41;5007763;28;20195;-71
2023/05/21 14:14:48;;;;;;;9.50;5.77;;;;;;;20.98;69.71;96673.00;5007757;28;20190;-67
2023/05/21 14:17:15;;;;;;;9.57;6.57;;;;;;;20.97;67.35;96671.34;5021572;28;20196;-68
2023/05/21 14:19:42;;;;;;;8.87;5.50;;;;;;;21.06;65.04;96658.19;5008012;28;20202;-67
2023/05/21 14:22:10;;;;;;;7.80;5.00;;;;;;;21.08;63.97;96659.84;5004650;28;20254;-69
2023/05/21 14:24:37;;;;;;;10.23;6.23;;;;;;;21.11;64.64;96672.72;5006614;28;20655;-69
2023/05/21 14:27:04;;;;;;;6.53;5.00;;;;;;;21.12;63.54;96655.97;5006312;28;20198;-67
2023/05/21 14:29:32;;;;;;;7.20;4.60;;;;;;;21.19;64.01;96670.19;5007824;28;20695;-67
2023/05/21 14:31:59;;;;;;;6.97;5.43;;;;;;;21.08;64.18;96656.22;5007301;28;20206;-67
2023/05/21 14:34:26;;;;;;;6.53;5.10;;;;;;;21.05;65.77;96664.44;5006816;28;20195;-67
2023/05/21 14:36:53;;;;;;;7.30;5.73;;;;;;;20.89;67.34;96663.34;5007788;28;20202;-72
2023/05/21 14:40:00;;;;;;;7.90;5.50;;;;;;;20.84;67.58;96661.13;5005798;28;20234;-68
2023/05/21 14:43:20;;;;;;;6.67;5.40;;;;;;;21.00;67.37;96656.09;5005847;28;20234;-67
2023/05/21 14:46:41;;;;;;;7.27;5.70;;;;;;;21.18;66.74;96652.75;5007492;28;20250;-76
2023/05/21 14:49:22;;;;;;;8.70;5.40;;;;;;;21.30;66.38;96643.69;5006857;28;20301;-71
2023/05/21 14:52:29;;;;;;;10.83;6.03;;;;;;;21.27;63.88;96642.16;5006155;28;20202;-72
2023/05/21 14:55:11;;;;;;;8.77;5.43;;;;;;;21.26;63.97;96637.03;5007695;28;20241;-66
2023/05/21 14:57:38;;;;;;;8.93;5.90;;;;;;;21.34;64.50;96637.97;5006637;28;20192;-74
2023/05/21 15:00:05;;;;;;;9.67;6.10;;;;;;;21.41;64.64;96646.13;5005929;28;20191;-70
2023/05/21 15:02:33;;;;;;;12.17;6.00;;;;;;;21.38;65.82;96643.78;5007378;28;20269;-67
2023/05/21 15:05:00;;;;;;;7.03;5.87;;;;;;;21.40;65.38;96636.56;5008063;28;20203;-67
2023/05/21 15:07:29;;;;;;;9.87;6.00;;;;;;;21.48;64.88;96644.56;5009709;28;20226;-68
2023/05/21 15:09:56;;;;;;;12.97;6.47;;;;;;;21.55;64.63;96635.09;5008290;28;20210;-71
2023/05/21 15:12:23;;;;;;;12.97;6.50;;;;;;;21.47;66.39;96630.56;5011176;28;20196;-68
2023/05/21 15:14:51;;;;;;;22.50;12.87;;;;;;;21.64;66.75;96631.56;5010073;28;20630;-69
2023/05/21 15:17:18;;;;;;;38.43;21.63;;;;;;;21.06;66.33;96576.53;5010684;28;20206;-67
2023/05/21 15:19:45;;;;;;;11.33;7.40;;;;;;;21.43;66.42;96620.47;5011024;28;20357;-66
2023/05/21 15:22:12;;;;;;;11.57;7.00;;;;;;;21.36;66.06;96614.13;5009778;28;20256;-68
2023/05/21 15:24:40;;;;;;;8.07;5.30;;;;;;;21.48;66.42;96629.59;5011142;28;20309;-72
2023/05/21 15:27:07;;;;;;;11.03;5.40;;;;;;;21.60;64.13;96627.56;5009161;28;20318;-65
2023/05/21 15:29:35;;;;;;;11.83;6.53;;;;;;;21.73;64.60;96625.41;5010950;28;20196;-66
2023/05/21 15:32:04;;;;;;;10.93;7.03;;;;;;;21.80;64.84;96629.13;5009337;28;20246;-67
2023/05/21 15:34:31;;;;;;;8.37;5.33;;;;;;;21.70;63.93;96625.72;5010738;28;20195;-66
2023/05/21 15:36:58;;;;;;;10.57;5.23;;;;;;;21.72;64.30;96621.94;5007901;28;20647;-66
2023/05/21 15:39:26;;;;;;;7.13;5.13;;;;;;;21.68;65.13;96620.59;4997267;28;20283;-68
2023/05/21 15:41:53;;;;;;;10.93;5.03;;;;;;;21.69;63.03;96622.25;4991651;28;20294;-65
2023/05/21 15:44:21;;;;;;;8.73;5.20;;;;;;;21.53;64.47;96615.97;4989484;28;20193;-67
2023/05/21 15:46:48;;;;;;;10.47;6.23;;;;;;;21.44;65.82;96608.94;4991357;28;20196;-66
2023/05/21 15:49:16;;;;;;;6.47;5.60;;;;;;;21.30;64.63;96617.34;4989163;28;20199;-70
2023/05/21 15:51:45;;;;;;;7.83;5.77;;;;;;;21.50;64.98;96613.63;4991113;28;20246;-70
2023/05/21 15:54:15;;;;;;;8.17;5.20;;;;;;;21.39;65.35;96609.38;4990574;28;20663;-66
2023/05/21 15:56:44;;;;;;;9.53;5.90;;;;;;;21.55;64.73;96614.84;4988403;28;20227;-71
2023/05/21 15:59:12;;;;;;;7.83;5.77;;;;;;;21.51;63.15;96620.56;4989424;28;20200;-72
2023/05/21 16:01:39;;;;;;;11.67;5.70;;;;;;;21.47;63.74;96627.94;4988932;28;20682;-76
2023/05/21 16:04:07;;;;;;;8.33;5.93;;;;;;;21.41;64.16;96627.69;4991040;28;20291;-73
2023/05/21 16:06:34;;;;;;;8.60;5.83;;;;;;;21.41;64.18;96625.88;4992433;28;20276;-73
2023/05/21 16:09:01;;;;;;;6.63;5.07;;;;;;;21.33;61.34;96625.75;4990657;28;20211;-69
2023/05/21 16:11:28;;;;;;;6.90;5.63;;;;;;;21.31;62.64;96624.28;4989909;28;20714;-70
2023/05/21 16:13:55;;;;;;;7.07;5.20;;;;;;;21.18;63.67;96631.69;4989690;28;20196;-67
2023/05/21 16:16:23;;;;;;;7.67;5.27;;;;;;;21.20;61.37;96635.00;4990063;28;20287;-70
2023/05/21 16:18:50;;;;;;;5.70;4.60;;;;;;;21.20;57.65;96624.47;4987621;28;20208;-68
2023/05/21 16:21:17;;;;;;;5.57;4.47;;;;;;;21.18;57.94;96650.09;5005430;28;20726;-72
2023/05/21 16:23:44;;;;;;;5.57;4.50;;;;;;;20.91;56.88;96641.16;4988644;28;20199;-74
2023/05/21 16:26:11;;;;;;;6.60;4.47;;;;;;;20.71;56.18;96644.78;4988742;28;20208;-73
2023/05/21 16:28:39;;;;;;;5.10;3.50;;;;;;;20.63;55.96;96649.13;5000298;28;20292;-69
2023/05/21 16:31:07;;;;;;;5.47;3.13;;;;;;;20.59;54.57;96640.66;5007457;28;20219;-67
2023/05/21 16:33:34;;;;;;;6.80;3.87;;;;;;;20.54;54.06;96642.06;5009892;28;20671;-68
2023/05/21 16:36:01;;;;;;;5.53;3.30;;;;;;;20.51;54.45;96630.03;5006742;28;20215;-67
2023/05/21 16:38:28;;;;;;;10.40;5.50;;;;;;;20.62;55.23;96648.28;5009540;28;20241;-67
2023/05/21 16:40:55;;;;;;;7.47;4.67;;;;;;;20.52;55.58;96650.13;5008043;28;20261;-67
2023/05/21 16:43:22;;;;;;;6.37;4.10;;;;;;;20.45;56.13;96645.53;5009758;28;20234;-69
2023/05/21 16:45:51;;;;;;;5.50;3.70;;;;;;;20.46;56.82;96640.16;5008476;28;20189;-68
2023/05/21 16:48:18;;;;;;;6.13;4.20;;;;;;;20.31;57.74;96641.53;5009193;28;20693;-71
2023/05/21 16:50:45;;;;;;;8.53;4.53;;;;;;;20.23;58.27;96651.94;5009280;28;20194;-67
2023/05/21 16:53:13;;;;;;;11.23;4.83;;;;;;;20.27;58.52;96645.41;5008023;28;20317;-67
2023/05/21 16:55:42;;;;;;;7.60;4.40;;;;;;;20.32;58.02;96648.44;5008052;28;20708;-69
2023/05/21 16:58:09;;;;;;;6.43;4.20;;;;;;;20.31;57.40;96651.22;5007683;28;20305;-71
2023/05/21 17:00:36;;;;;;;5.70;3.53;;;;;;;20.17;57.72;96648.00;5009429;28;20203;-68
2023/05/21 17:03:03;;;;;;;7.30;3.77;;;;;;;20.16;56.92;96664.75;5007813;28;20232;-68
2023/05/21 17:05:31;;;;;;;5.80;3.57;;;;;;;20.12;56.64;96654.66;5008770;28;20290;-67
2023/05/21 17:07:58;;;;;;;4.23;3.50;;;;;;;20.10;57.39;96656.59;5008867;28;20194;-68
2023/05/21 17:10:25;;;;;;;5.00;3.70;;;;;;;20.02;57.91;96659.06;5006517;28;20205;-69
2023/05/21 17:12:55;;;;;;;5.67;3.43;;;;;;;19.95;56.00;96660.56;5009172;28;20226;-69
2023/05/21 17:15:26;;;;;;;4.67;3.20;;;;;;;19.98;54.48;96665.56;5005658;28;20214;-68
2023/05/21 17:17:53;;;;;;;5.17;3.13;;;;;;;20.01;53.63;96663.50;5007938;28;20198;-69
2023/05/21 17:20:20;;;;;;;6.60;2.93;;;;;;;20.05;53.23;96669.34;5007223;28;20657;-69
2023/05/21 17:22:47;;;;;;;4.03;2.80;;;;;;;19.98;52.78;96665.56;5008667;28;20296;-68
2023/05/21 17:25:14;;;;;;;6.73;3.20;;;;;;;19.91;52.73;96652.16;5007342;28;20253;-68
2023/05/21 17:27:41;;;;;;;7.13;3.27;;;;;;;20.00;51.92;96669.75;5003711;28;20290;-68
2023/05/21 17:30:09;;;;;;;7.50;3.07;;;;;;;19.93;52.07;96668.59;5008801;28;20209;-67
2023/05/21 17:32:36;;;;;;;5.00;3.27;;;;;;;19.92;50.99;96666.97;5007052;28;20191;-72
2023/05/21 17:35:03;;;;;;;9.33;5.17;;;;;;;19.92;51.41;96676.63;5004358;28;20289;-71
2023/05/21 17:37:30;;;;;;;7.57;3.33;;;;;;;19.90;51.45;96683.84;4987361;28;20199;-69
2023/05/21 17:39:58;;;;;;;5.23;3.03;;;;;;;19.80;51.21;96669.84;4989029;28;20195;-71
2023/05/21 17:42:25;;;;;;;5.10;2.83;;;;;;;19.88;51.18;96683.13;5003360;28;20235;-70
2023/05/21 17:44:52;;;;;;;8.07;3.20;;;;;;;19.90;51.05;96670.69;4988192;28;20320;-69
2023/05/21 17:47:19;;;;;;;6.57;3.20;;;;;;;19.91;50.48;96691.56;4989511;28;20202;-68
2023/05/21 17:49:46;;;;;;;5.63;3.43;;;;;;;19.87;50.91;96684.09;4987401;28;20207;-73
2023/05/21 17:52:13;;;;;;;5.03;3.20;;;;;;;19.79;51.34;96676.06;4988956;28;20203;-74
2023/05/21 17:54:40;;;;;;;7.23;3.10;;;;;;;19.76;51.36;96676.34;4987165;28;20286;-73
2023/05/21 17:57:09;;;;;;;7.10;3.20;;;;;;;19.80;51.08;96682.97;4988892;28;20684;-75
2023/05/21 17:59:39;;;;;;;7.17;3.30;;;;;;;19.87;51.45;96692.81;5011421;28;20309;-73
2023/05/21 18:02:06;;;;;;;6.50;4.30;;;;;;;19.78;51.56;96684.91;4989706;28;20326;-75
2023/05/21 18:04:33;;;;;;;6.20;3.30;;;;;;;19.61;51.73;96668.00;4989241;28;20256;-77
2023/05/21 18:07:00;;;;;;;6.60;4.27;;;;;;;19.80;51.61;96685.63;4987154;28;20268;-74
2023/05/21 18:09:27;;;;;;;8.03;4.80;;;;;;;19.92;51.96;96702.94;4989063;28;20234;-68
2023/05/21 18:11:54;;;;;;;7.63;5.47;;;;;;;19.81;52.43;96695.13;4986997;28;20730;-71
2023/05/21 18:14:21;;;;;;;8.27;4.07;;;;;;;19.89;51.92;96703.19;4988660;28;20195;-68
2023/05/21 18:16:49;;;;;;;6.97;4.13;;;;;;;19.81;51.80;96690.72;4987397;28;20199;-70
2023/05/21 18:19:16;;;;;;;7.33;3.40;;;;;;;19.79;52.28;96699.69;4988116;28;20198;-73
2023/05/21 18:21:43;;;;;;;8.07;4.10;;;;;;;19.80;52.56;96704.84;4989914;28;20589;-68
2023/05/21 18:24:10;;;;;;;11.10;4.20;;;;;;;19.88;51.78;96712.03;5002084;28;20206;-68
2023/05/21 18:26:37;;;;;;;9.17;4.83;;;;;;;20.03;52.07;96710.72;4991229;28;20761;-72
2023/05/21 18:29:04;;;;;;;12.97;6.23;;;;;;;20.05;52.78;96716.66;4986789;28;20199;-69
2023/05/21 18:31:31;;;;;;;12.93;6.20;;;;;;;20.07;52.65;96717.34;4985132;28;20202;-70
2023/05/21 18:33:58;;;;;;;11.37;5.97;;;;;;;20.09;51.95;96712.78;4993131;28;20705;-68
2023/05/21 18:36:25;;;;;;;10.63;5.80;;;;;;;20.07;52.60;96710.28;4988313;28;20202;-69
2023/05/21 18:38:52;;;;;;;11.83;4.80;;;;;;;20.11;53.70;96724.00;4990301;28;20195;-69
2023/05/21 18:41:21;;;;;;;9.73;4.63;;;;;;;20.24;53.32;96716.69;5006089;28;20235;-68